sensor_id;sensor_type;location;lat;lon;timestamp;P1;durP1;ratioP1;P2;durP2;ratioP2
38025;SDS011;23836;48.430;9.888;2022-08-19T00:29:50;41.63;;;23.63;;
38025;SDS011;23836;48.430;9.888;2022-08-19T00:34:41;43.47;;;24.13;;
38025;SDS011;23836;48.430;9.888;2022-08-19T00:39:31;43.72;;;23.70;;
38025;SDS011;23836;48.430;9.888;2022-08-19T00:44:24;42.88;;;24.27;;
38025;SDS011;23836;48.430;9.888;2022-08-19T00:49:31;44.78;;;25.48;;
38025;SDS011;23836;48.430;9.888;2022-08-19T00:54:28;40.25;;;23.48;;
38025;SDS011;23836;48.430;9.888;2022-08-19T00:59:21;38.25;;;23.30;;
38025;SDS011;23836;48.430;9.888;2022-08-19T01:04:12;46.88;;;24.83;;
38025;SDS011;23836;48.430;9.888;2022-08-19T01:09:03;40.92;;;24.17;;
38025;SDS011;23836;48.430;9.888;2022-08-19T01:14:10;41.38;;;24.95;;
38025;SDS011;23836;48.430;9.888;2022-08-19T01:19:33;38.92;;;22.60;;
38025;SDS011;23836;48.430;9.888;2022-08-19T01:24:27;45.08;;;24.92;;
38025;SDS011;23836;48.430;9.888;2022-08-19T01:29:17;46.90;;;25.45;;
38025;SDS011;23836;48.430;9.888;2022-08-19T01:34:08;48.60;;;25.65;;
38025;SDS011;23836;48.430;9.888;2022-08-19T01:38:58;48.95;;;25.75;;
38025;SDS011;23836;48.430;9.888;2022-08-19T01:43:52;50.42;;;26.50;;
38025;SDS011;23836;48.430;9.888;2022-08-19T01:48:43;43.40;;;25.70;;
38025;SDS011;23836;48.430;9.888;2022-08-19T06:23:42;63.95;;;28.13;;
38025;SDS011;23836;48.430;9.888;2022-08-19T07:25:19;69.85;;;29.10;;
38025;SDS011;23836;48.430;9.888;2022-08-19T12:39:41;35.03;;;16.30;;
38025;SDS011;23836;48.430;9.888;2022-08-19T12:44:32;26.27;;;15.10;;
38025;SDS011;23836;48.430;9.888;2022-08-19T12:49:22;21.48;;;11.60;;
38025;SDS011;23836;48.430;9.888;2022-08-19T12:54:13;17.75;;;11.45;;
38025;SDS011;23836;48.430;9.888;2022-08-19T12:59:04;17.95;;;11.02;;
38025;SDS011;23836;48.430;9.888;2022-08-19T13:03:55;19.17;;;9.30;;
38025;SDS011;23836;48.430;9.888;2022-08-19T13:08:46;14.68;;;9.85;;
38025;SDS011;23836;48.430;9.888;2022-08-19T13:13:38;16.08;;;9.65;;
38025;SDS011;23836;48.430;9.888;2022-08-19T13:18:31;15.23;;;9.48;;
38025;SDS011;23836;48.430;9.888;2022-08-19T13:23:21;21.13;;;11.48;;
38025;SDS011;23836;48.430;9.888;2022-08-19T13:28:12;24.50;;;13.45;;
38025;SDS011;23836;48.430;9.888;2022-08-19T13:33:03;24.15;;;13.00;;
38025;SDS011;23836;48.430;9.888;2022-08-19T13:38:06;28.75;;;14.88;;
38025;SDS011;23836;48.430;9.888;2022-08-19T13:42:56;26.70;;;13.88;;
38025;SDS011;23836;48.430;9.888;2022-08-19T13:47:48;26.45;;;15.15;;
38025;SDS011;23836;48.430;9.888;2022-08-19T13:52:40;29.35;;;15.45;;
38025;SDS011;23836;48.430;9.888;2022-08-19T16:08:47;24.30;;;15.13;;
38025;SDS011;23836;48.430;9.888;2022-08-19T19:31:35;64.35;;;33.10;;
38025;SDS011;23836;48.430;9.888;2022-08-19T19:36:28;68.47;;;34.33;;
38025;SDS011;23836;48.430;9.888;2022-08-19T19:41:20;69.13;;;36.10;;
38025;SDS011;23836;48.430;9.888;2022-08-19T19:46:14;70.28;;;37.58;;
38025;SDS011;23836;48.430;9.888;2022-08-19T19:51:06;69.35;;;35.35;;
38025;SDS011;23836;48.430;9.888;2022-08-19T23:19:41;12.45;;;8.55;;
